sensor_id;sensor_type;location;lat;lon;timestamp;P1;durP1;ratioP1;P2;durP2;ratioP2
64820;SDS011;51256;55.654;37.264;2022-09-06T00:01:32;4.55;;;2.80;;
64820;SDS011;51256;55.654;37.264;2022-09-06T00:03:57;3.45;;;2.40;;
64820;SDS011;51256;55.654;37.264;2022-09-06T00:06:23;4.80;;;2.63;;
64820;SDS011;51256;55.654;37.264;2022-09-06T00:08:48;4.68;;;2.55;;
64820;SDS011;51256;55.654;37.264;2022-09-06T00:11:14;4.38;;;2.42;;
64820;SDS011;51256;55.654;37.264;2022-09-06T00:13:41;3.97;;;2.35;;
64820;SDS011;51256;55.654;37.264;2022-09-06T00:16:21;3.83;;;2.50;;
64820;SDS011;51256;55.654;37.264;2022-09-06T00:18:48;4.80;;;2.33;;
64820;SDS011;51256;55.654;37.264;2022-09-06T00:23:49;5.05;;;2.58;;
64820;SDS011;51256;55.654;37.264;2022-09-06T00:26:15;4.07;;;2.40;;
64820;SDS011;51256;55.654;37.264;2022-09-06T00:28:41;3.63;;;2.30;;
64820;SDS011;51256;55.654;37.264;2022-09-06T00:31:10;4.47;;;2.20;;
64820;SDS011;51256;55.654;37.264;2022-09-06T00:33:38;4.22;;;2.05;;
64820;SDS011;51256;55.654;37.264;2022-09-06T00:36:03;3.60;;;2.40;;
64820;SDS011;51256;55.654;37.264;2022-09-06T00:38:29;3.88;;;2.40;;
64820;SDS011;51256;55.654;37.264;2022-09-06T00:40:55;4.10;;;2.20;;
64820;SDS011;51256;55.654;37.264;2022-09-06T00:43:21;3.88;;;2.30;;
64820;SDS011;51256;55.654;37.264;2022-09-06T00:45:47;3.63;;;2.13;;
64820;SDS011;51256;55.654;37.264;2022-09-06T00:48:13;3.38;;;2.30;;
64820;SDS011;51256;55.654;37.264;2022-09-06T00:50:41;3.40;;;1.80;;
64820;SDS011;51256;55.654;37.264;2022-09-06T00:53:08;3.25;;;2.13;;
64820;SDS011;51256;55.654;37.264;2022-09-06T00:55:34;3.50;;;2.08;;
64820;SDS011;51256;55.654;37.264;2022-09-06T00:58:00;2.60;;;1.73;;
64820;SDS011;51256;55.654;37.264;2022-09-06T01:00:26;3.75;;;2.20;;
64820;SDS011;51256;55.654;37.264;2022-09-06T01:02:52;2.75;;;1.90;;
64820;SDS011;51256;55.654;37.264;2022-09-06T01:05:18;3.20;;;2.15;;
64820;SDS011;51256;55.654;37.264;2022-09-06T01:07:57;2.80;;;1.80;;
64820;SDS011;51256;55.654;37.264;2022-09-06T01:15:44;3.67;;;2.30;;
64820;SDS011;51256;55.654;37.264;2022-09-06T01:21:44;3.58;;;2.20;;
64820;SDS011;51256;55.654;37.264;2022-09-06T01:24:10;3.88;;;2.10;;
64820;SDS011;51256;55.654;37.264;2022-09-06T01:30:00;3.40;;;2.20;;
64820;SDS011;51256;55.654;37.264;2022-09-06T01:32:29;4.53;;;2.53;;
64820;SDS011;51256;55.654;37.264;2022-09-06T01:37:36;3.50;;;1.85;;
64820;SDS011;51256;55.654;37.264;2022-09-06T01:40:02;4.65;;;2.53;;
64820;SDS011;51256;55.654;37.264;2022-09-06T01:42:28;3.90;;;2.65;;
64820;SDS011;51256;55.654;37.264;2022-09-06T01:45:04;4.13;;;2.60;;
64820;SDS011;51256;55.654;37.264;2022-09-06T01:58:18;4.32;;;3.00;;
64820;SDS011;51256;55.654;37.264;2022-09-06T02:01:07;5.57;;;3.28;;
64820;SDS011;51256;55.654;37.264;2022-09-06T02:04:02;4.63;;;3.10;;
64820;SDS011;51256;55.654;37.264;2022-09-06T02:07:06;5.85;;;3.33;;
64820;SDS011;51256;55.654;37.264;2022-09-06T02:10:09;5.28;;;3.28;;
64820;SDS011;51256;55.654;37.264;2022-09-06T02:12:37;6.55;;;3.80;;
64820;SDS011;51256;55.654;37.264;2022-09-06T02:15:06;5.72;;;3.50;;
64820;SDS011;51256;55.654;37.264;2022-09-06T02:17:42;4.97;;;3.30;;
64820;SDS011;51256;55.654;37.264;2022-09-06T02:20:21;5.32;;;3.67;;
64820;SDS011;51256;55.654;37.264;2022-09-06T02:22:51;4.85;;;3.50;;
64820;SDS011;51256;55.654;37.264;2022-09-06T02:25:22;4.50;;;3.10;;
64820;SDS011;51256;55.654;37.264;2022-09-06T02:27:51;4.47;;;3.25;;
64820;SDS011;51256;55.654;37.264;2022-09-06T02:30:18;4.85;;;3.28;;
64820;SDS011;51256;55.654;37.264;2022-09-06T02:32:46;6.38;;;3.45;;
64820;SDS011;51256;55.654;37.264;2022-09-06T02:35:40;6.03;;;3.20;;
64820;SDS011;51256;55.654;37.264;2022-09-06T02:38:07;4.50;;;3.15;;
64820;SDS011;51256;55.654;37.264;2022-09-06T02:40:33;5.50;;;3.50;;
64820;SDS011;51256;55.654;37.264;2022-09-06T02:42:59;6.32;;;3.40;;
64820;SDS011;51256;55.654;37.264;2022-09-06T02:45:25;6.20;;;3.50;;
64820;SDS011;51256;55.654;37.264;2022-09-06T02:47:50;7.65;;;3.70;;
64820;SDS011;51256;55.654;37.264;2022-09-06T02:50:16;9.75;;;4.03;;
64820;SDS011;51256;55.654;37.264;2022-09-06T02:52:41;5.38;;;3.65;;
64820;SDS011;51256;55.654;37.264;2022-09-06T02:55:06;6.00;;;3.42;;
64820;SDS011;51256;55.654;37.264;2022-09-06T02:57:32;9.38;;;3.70;;
64820;SDS011;51256;55.654;37.264;2022-09-06T02:59:58;7.55;;;3.90;;
64820;SDS011;51256;55.654;37.264;2022-09-06T03:02:23;7.05;;;3.30;;
64820;SDS011;51256;55.654;37.264;2022-09-06T03:04:49;6.13;;;4.07;;
64820;SDS011;51256;55.654;37.264;2022-09-06T03:07:15;6.10;;;3.78;;
64820;SDS011;51256;55.654;37.264;2022-09-06T03:09:40;5.60;;;3.78;;
64820;SDS011;51256;55.654;37.264;2022-09-06T03:12:06;4.75;;;3.50;;
64820;SDS011;51256;55.654;37.264;2022-09-06T03:14:31;5.47;;;3.53;;
64820;SDS011;51256;55.654;37.264;2022-09-06T03:17:00;9.80;;;4.50;;
64820;SDS011;51256;55.654;37.264;2022-09-06T03:19:26;6.50;;;4.07;;
64820;SDS011;51256;55.654;37.264;2022-09-06T03:21:51;5.85;;;3.72;;
64820;SDS011;51256;55.654;37.264;2022-09-06T03:24:17;5.72;;;3.50;;
64820;SDS011;51256;55.654;37.264;2022-09-06T03:26:42;9.32;;;3.90;;
64820;SDS011;51256;55.654;37.264;2022-09-06T03:29:08;7.60;;;3.70;;
64820;SDS011;51256;55.654;37.264;2022-09-06T03:31:33;5.35;;;3.60;;
64820;SDS011;51256;55.654;37.264;2022-09-06T03:33:59;4.13;;;2.92;;
64820;SDS011;51256;55.654;37.264;2022-09-06T03:36:24;5.40;;;3.40;;
64820;SDS011;51256;55.654;37.264;2022-09-06T03:38:50;5.60;;;3.10;;
64820;SDS011;51256;55.654;37.264;2022-09-06T03:41:17;7.43;;;3.83;;
64820;SDS011;51256;55.654;37.264;2022-09-06T03:43:43;7.65;;;4.35;;
64820;SDS011;51256;55.654;37.264;2022-09-06T03:46:09;9.50;;;4.13;;
64820;SDS011;51256;55.654;37.264;2022-09-06T03:48:34;8.02;;;4.57;;
64820;SDS011;51256;55.654;37.264;2022-09-06T03:51:00;6.50;;;4.63;;
64820;SDS011;51256;55.654;37.264;2022-09-06T03:53:26;7.00;;;4.13;;
64820;SDS011;51256;55.654;37.264;2022-09-06T03:55:53;8.27;;;5.50;;
64820;SDS011;51256;55.654;37.264;2022-09-06T03:58:22;6.97;;;3.90;;
64820;SDS011;51256;55.654;37.264;2022-09-06T04:00:48;5.72;;;4.03;;
64820;SDS011;51256;55.654;37.264;2022-09-06T04:03:23;6.22;;;4.25;;
64820;SDS011;51256;55.654;37.264;2022-09-06T04:05:48;6.75;;;3.70;;
64820;SDS011;51256;55.654;37.264;2022-09-06T04:08:14;4.93;;;3.50;;
64820;SDS011;51256;55.654;37.264;2022-09-06T04:10:39;5.72;;;3.28;;
64820;SDS011;51256;55.654;37.264;2022-09-06T04:13:05;3.80;;;2.72;;
64820;SDS011;51256;55.654;37.264;2022-09-06T04:15:30;6.32;;;3.55;;
64820;SDS011;51256;55.654;37.264;2022-09-06T04:17:56;3.97;;;2.80;;
64820;SDS011;51256;55.654;37.264;2022-09-06T04:20:22;9.00;;;3.20;;
64820;SDS011;51256;55.654;37.264;2022-09-06T04:22:47;8.77;;;2.60;;
64820;SDS011;51256;55.654;37.264;2022-09-06T04:25:13;4.43;;;3.03;;
64820;SDS011;51256;55.654;37.264;2022-09-06T04:27:38;5.00;;;2.80;;
64820;SDS011;51256;55.654;37.264;2022-09-06T04:30:04;6.97;;;2.60;;
64820;SDS011;51256;55.654;37.264;2022-09-06T04:32:30;3.70;;;2.60;;
64820;SDS011;51256;55.654;37.264;2022-09-06T04:34:56;5.03;;;1.95;;
64820;SDS011;51256;55.654;37.264;2022-09-06T04:37:22;3.35;;;2.30;;
64820;SDS011;51256;55.654;37.264;2022-09-06T04:39:47;4.32;;;2.10;;
64820;SDS011;51256;55.654;37.264;2022-09-06T04:42:13;7.15;;;2.35;;
64820;SDS011;51256;55.654;37.264;2022-09-06T04:44:39;2.88;;;2.00;;
64820;SDS011;51256;55.654;37.264;2022-09-06T04:47:05;4.20;;;2.47;;
64820;SDS011;51256;55.654;37.264;2022-09-06T04:49:36;4.93;;;1.38;;
64820;SDS011;51256;55.654;37.264;2022-09-06T04:52:02;10.73;;;2.30;;
64820;SDS011;51256;55.654;37.264;2022-09-06T04:54:28;2.00;;;1.30;;
64820;SDS011;51256;55.654;37.264;2022-09-06T04:56:53;4.15;;;1.90;;
64820;SDS011;51256;55.654;37.264;2022-09-06T04:59:19;10.07;;;4.47;;
64820;SDS011;51256;55.654;37.264;2022-09-06T05:01:44;3.83;;;1.63;;
64820;SDS011;51256;55.654;37.264;2022-09-06T05:04:10;3.60;;;1.77;;
64820;SDS011;51256;55.654;37.264;2022-09-06T05:06:35;2.75;;;1.17;;
64820;SDS011;51256;55.654;37.264;2022-09-06T05:09:03;4.45;;;1.80;;
64820;SDS011;51256;55.654;37.264;2022-09-06T05:11:28;2.60;;;1.60;;
64820;SDS011;51256;55.654;37.264;2022-09-06T05:13:54;3.42;;;1.55;;
64820;SDS011;51256;55.654;37.264;2022-09-06T05:16:19;2.53;;;1.48;;
64820;SDS011;51256;55.654;37.264;2022-09-06T05:18:45;2.35;;;1.30;;
64820;SDS011;51256;55.654;37.264;2022-09-06T05:21:10;3.15;;;1.80;;
64820;SDS011;51256;55.654;37.264;2022-09-06T05:23:36;4.50;;;1.40;;
64820;SDS011;51256;55.654;37.264;2022-09-06T05:26:02;1.95;;;1.13;;
64820;SDS011;51256;55.654;37.264;2022-09-06T05:28:28;2.70;;;1.35;;
64820;SDS011;51256;55.654;37.264;2022-09-06T05:31:03;1.80;;;1.17;;
64820;SDS011;51256;55.654;37.264;2022-09-06T05:33:50;4.30;;;1.38;;
64820;SDS011;51256;55.654;37.264;2022-09-06T05:36:16;3.33;;;1.40;;
64820;SDS011;51256;55.654;37.264;2022-09-06T05:38:41;2.47;;;1.45;;
64820;SDS011;51256;55.654;37.264;2022-09-06T05:41:07;5.10;;;1.50;;
64820;SDS011;51256;55.654;37.264;2022-09-06T05:43:32;2.60;;;1.20;;
64820;SDS011;51256;55.654;37.264;2022-09-06T05:45:58;7.53;;;5.55;;
64820;SDS011;51256;55.654;37.264;2022-09-06T05:48:23;6.30;;;1.50;;
64820;SDS011;51256;55.654;37.264;2022-09-06T05:50:58;4.75;;;1.40;;
64820;SDS011;51256;55.654;37.264;2022-09-06T05:53:37;5.80;;;1.40;;
64820;SDS011;51256;55.654;37.264;2022-09-06T05:56:07;5.15;;;1.38;;
64820;SDS011;51256;55.654;37.264;2022-09-06T05:58:34;4.22;;;1.60;;
64820;SDS011;51256;55.654;37.264;2022-09-06T06:06:19;2.88;;;1.40;;
64820;SDS011;51256;55.654;37.264;2022-09-06T06:08:46;11.15;;;1.90;;
64820;SDS011;51256;55.654;37.264;2022-09-06T06:11:12;6.05;;;1.65;;
64820;SDS011;51256;55.654;37.264;2022-09-06T06:13:37;3.25;;;1.90;;
64820;SDS011;51256;55.654;37.264;2022-09-06T06:16:07;3.42;;;1.80;;
64820;SDS011;51256;55.654;37.264;2022-09-06T06:18:34;4.88;;;2.20;;
64820;SDS011;51256;55.654;37.264;2022-09-06T06:21:10;3.80;;;2.13;;
64820;SDS011;51256;55.654;37.264;2022-09-06T06:23:36;5.72;;;2.20;;
64820;SDS011;51256;55.654;37.264;2022-09-06T06:26:03;4.53;;;1.75;;
64820;SDS011;51256;55.654;37.264;2022-09-06T06:28:29;4.72;;;2.10;;
64820;SDS011;51256;55.654;37.264;2022-09-06T06:30:55;6.53;;;2.30;;
64820;SDS011;51256;55.654;37.264;2022-09-06T06:33:23;5.35;;;2.22;;
64820;SDS011;51256;55.654;37.264;2022-09-06T06:36:02;4.68;;;2.20;;
64820;SDS011;51256;55.654;37.264;2022-09-06T06:38:33;4.00;;;2.50;;
64820;SDS011;51256;55.654;37.264;2022-09-06T06:41:00;4.63;;;2.33;;
64820;SDS011;51256;55.654;37.264;2022-09-06T06:43:26;6.55;;;2.20;;
64820;SDS011;51256;55.654;37.264;2022-09-06T06:45:52;4.35;;;2.30;;
64820;SDS011;51256;55.654;37.264;2022-09-06T06:48:18;5.13;;;2.25;;
64820;SDS011;51256;55.654;37.264;2022-09-06T06:50:44;3.30;;;2.10;;
64820;SDS011;51256;55.654;37.264;2022-09-06T06:53:09;5.90;;;2.08;;
64820;SDS011;51256;55.654;37.264;2022-09-06T06:55:35;5.22;;;2.75;;
64820;SDS011;51256;55.654;37.264;2022-09-06T06:58:00;4.30;;;2.35;;
64820;SDS011;51256;55.654;37.264;2022-09-06T07:00:26;6.07;;;1.90;;
64820;SDS011;51256;55.654;37.264;2022-09-06T07:02:52;3.75;;;1.83;;
64820;SDS011;51256;55.654;37.264;2022-09-06T07:05:19;4.05;;;2.45;;
64820;SDS011;51256;55.654;37.264;2022-09-06T07:07:48;3.35;;;1.52;;
64820;SDS011;51256;55.654;37.264;2022-09-06T07:10:13;6.50;;;2.30;;
64820;SDS011;51256;55.654;37.264;2022-09-06T07:12:39;3.33;;;1.60;;
64820;SDS011;51256;55.654;37.264;2022-09-06T07:15:05;4.72;;;2.28;;
64820;SDS011;51256;55.654;37.264;2022-09-06T07:17:31;3.33;;;2.25;;
64820;SDS011;51256;55.654;37.264;2022-09-06T07:19:57;3.55;;;2.08;;
64820;SDS011;51256;55.654;37.264;2022-09-06T07:22:22;6.07;;;2.25;;
64820;SDS011;51256;55.654;37.264;2022-09-06T07:24:48;4.28;;;1.50;;
64820;SDS011;51256;55.654;37.264;2022-09-06T07:27:13;3.92;;;1.90;;
64820;SDS011;51256;55.654;37.264;2022-09-06T07:29:39;4.13;;;1.50;;
64820;SDS011;51256;55.654;37.264;2022-09-06T07:32:04;4.93;;;1.90;;
64820;SDS011;51256;55.654;37.264;2022-09-06T07:34:30;5.82;;;1.70;;
64820;SDS011;51256;55.654;37.264;2022-09-06T07:36:57;3.78;;;2.10;;
64820;SDS011;51256;55.654;37.264;2022-09-06T07:39:22;5.72;;;2.50;;
64820;SDS011;51256;55.654;37.264;2022-09-06T07:41:48;5.53;;;2.05;;
64820;SDS011;51256;55.654;37.264;2022-09-06T07:44:13;5.40;;;2.25;;
64820;SDS011;51256;55.654;37.264;2022-09-06T07:46:39;2.63;;;1.67;;
64820;SDS011;51256;55.654;37.264;2022-09-06T07:49:05;3.22;;;1.90;;
64820;SDS011;51256;55.654;37.264;2022-09-06T07:51:31;2.78;;;1.65;;
64820;SDS011;51256;55.654;37.264;2022-09-06T07:53:57;2.65;;;1.70;;
64820;SDS011;51256;55.654;37.264;2022-09-06T07:56:23;4.07;;;2.05;;
64820;SDS011;51256;55.654;37.264;2022-09-06T07:58:49;8.07;;;2.67;;
64820;SDS011;51256;55.654;37.264;2022-09-06T08:03:44;5.03;;;2.42;;
64820;SDS011;51256;55.654;37.264;2022-09-06T08:06:11;4.07;;;2.53;;
64820;SDS011;51256;55.654;37.264;2022-09-06T08:08:37;3.38;;;2.00;;
64820;SDS011;51256;55.654;37.264;2022-09-06T08:11:03;6.45;;;2.58;;
64820;SDS011;51256;55.654;37.264;2022-09-06T08:13:31;5.55;;;2.38;;
64820;SDS011;51256;55.654;37.264;2022-09-06T08:15:58;4.18;;;2.13;;
64820;SDS011;51256;55.654;37.264;2022-09-06T08:18:24;2.95;;;1.55;;
64820;SDS011;51256;55.654;37.264;2022-09-06T08:20:50;4.10;;;1.65;;
64820;SDS011;51256;55.654;37.264;2022-09-06T08:23:15;2.90;;;1.38;;
64820;SDS011;51256;55.654;37.264;2022-09-06T08:25:41;5.00;;;2.22;;
64820;SDS011;51256;55.654;37.264;2022-09-06T08:28:06;3.17;;;1.55;;
64820;SDS011;51256;55.654;37.264;2022-09-06T08:30:32;4.15;;;1.95;;
64820;SDS011;51256;55.654;37.264;2022-09-06T08:32:57;3.30;;;2.00;;
64820;SDS011;51256;55.654;37.264;2022-09-06T08:35:23;3.08;;;1.77;;
64820;SDS011;51256;55.654;37.264;2022-09-06T08:37:48;3.53;;;1.75;;
64820;SDS011;51256;55.654;37.264;2022-09-06T08:40:15;2.88;;;1.80;;
64820;SDS011;51256;55.654;37.264;2022-09-06T08:42:45;3.55;;;2.33;;
64820;SDS011;51256;55.654;37.264;2022-09-06T08:45:11;2.25;;;1.48;;
64820;SDS011;51256;55.654;37.264;2022-09-06T08:47:43;5.10;;;1.90;;
64820;SDS011;51256;55.654;37.264;2022-09-06T08:50:08;7.50;;;2.33;;
64820;SDS011;51256;55.654;37.264;2022-09-06T08:52:42;3.65;;;2.03;;
64820;SDS011;51256;55.654;37.264;2022-09-06T08:55:38;3.78;;;2.17;;
64820;SDS011;51256;55.654;37.264;2022-09-06T08:58:44;3.95;;;2.38;;
64820;SDS011;51256;55.654;37.264;2022-09-06T09:01:54;3.67;;;2.20;;
64820;SDS011;51256;55.654;37.264;2022-09-06T09:04:15;3.70;;;2.30;;
64820;SDS011;51256;55.654;37.264;2022-09-06T09:06:46;4.22;;;1.70;;
64820;SDS011;51256;55.654;37.264;2022-09-06T09:09:17;3.88;;;1.85;;
64820;SDS011;51256;55.654;37.264;2022-09-06T09:11:44;3.40;;;2.05;;
64820;SDS011;51256;55.654;37.264;2022-09-06T09:14:15;4.70;;;2.50;;
64820;SDS011;51256;55.654;37.264;2022-09-06T09:16:55;3.95;;;2.65;;
64820;SDS011;51256;55.654;37.264;2022-09-06T09:19:27;5.35;;;2.25;;
64820;SDS011;51256;55.654;37.264;2022-09-06T09:21:57;4.43;;;2.30;;
64820;SDS011;51256;55.654;37.264;2022-09-06T09:24:23;3.60;;;2.17;;
64820;SDS011;51256;55.654;37.264;2022-09-06T09:29:54;7.78;;;1.75;;
64820;SDS011;51256;55.654;37.264;2022-09-06T09:32:29;4.28;;;1.80;;
64820;SDS011;51256;55.654;37.264;2022-09-06T09:35:29;2.22;;;1.25;;
64820;SDS011;51256;55.654;37.264;2022-09-06T09:38:12;4.97;;;1.60;;
64820;SDS011;51256;55.654;37.264;2022-09-06T09:40:51;4.10;;;1.10;;
64820;SDS011;51256;55.654;37.264;2022-09-06T09:43:29;4.25;;;1.73;;
64820;SDS011;51256;55.654;37.264;2022-09-06T09:51:38;5.20;;;1.80;;
64820;SDS011;51256;55.654;37.264;2022-09-06T09:54:10;5.40;;;2.38;;
64820;SDS011;51256;55.654;37.264;2022-09-06T09:56:50;5.40;;;2.63;;
64820;SDS011;51256;55.654;37.264;2022-09-06T09:59:20;4.50;;;1.83;;
64820;SDS011;51256;55.654;37.264;2022-09-06T10:01:47;3.05;;;1.73;;
64820;SDS011;51256;55.654;37.264;2022-09-06T10:04:23;5.78;;;1.98;;
64820;SDS011;51256;55.654;37.264;2022-09-06T10:07:05;4.88;;;2.00;;
64820;SDS011;51256;55.654;37.264;2022-09-06T10:09:36;3.83;;;1.40;;
64820;SDS011;51256;55.654;37.264;2022-09-06T10:12:05;5.53;;;2.40;;
64820;SDS011;51256;55.654;37.264;2022-09-06T10:14:32;6.65;;;3.42;;
64820;SDS011;51256;55.654;37.264;2022-09-06T10:17:08;3.78;;;1.50;;
64820;SDS011;51256;55.654;37.264;2022-09-06T10:19:43;5.22;;;1.88;;
64820;SDS011;51256;55.654;37.264;2022-09-06T10:22:25;2.88;;;1.50;;
64820;SDS011;51256;55.654;37.264;2022-09-06T10:27:39;3.08;;;1.33;;
64820;SDS011;51256;55.654;37.264;2022-09-06T10:30:24;6.55;;;1.88;;
64820;SDS011;51256;55.654;37.264;2022-09-06T10:33:04;4.10;;;1.58;;
64820;SDS011;51256;55.654;37.264;2022-09-06T10:35:45;2.88;;;1.60;;
64820;SDS011;51256;55.654;37.264;2022-09-06T10:38:18;4.10;;;2.05;;
64820;SDS011;51256;55.654;37.264;2022-09-06T10:43:59;3.80;;;1.50;;
64820;SDS011;51256;55.654;37.264;2022-09-06T10:46:46;2.40;;;1.50;;
64820;SDS011;51256;55.654;37.264;2022-09-06T10:49:15;3.67;;;1.60;;
64820;SDS011;51256;55.654;37.264;2022-09-06T10:51:57;2.37;;;1.40;;
64820;SDS011;51256;55.654;37.264;2022-09-06T10:54:25;2.42;;;1.40;;
64820;SDS011;51256;55.654;37.264;2022-09-06T10:56:55;4.28;;;1.77;;
64820;SDS011;51256;55.654;37.264;2022-09-06T10:59:34;6.95;;;2.40;;
64820;SDS011;51256;55.654;37.264;2022-09-06T11:04:38;3.08;;;1.80;;
64820;SDS011;51256;55.654;37.264;2022-09-06T11:07:26;5.13;;;2.00;;
64820;SDS011;51256;55.654;37.264;2022-09-06T11:12:41;2.88;;;1.38;;
64820;SDS011;51256;55.654;37.264;2022-09-06T11:15:13;3.20;;;1.52;;
64820;SDS011;51256;55.654;37.264;2022-09-06T11:17:48;3.30;;;1.35;;
64820;SDS011;51256;55.654;37.264;2022-09-06T11:20:28;2.38;;;1.23;;
64820;SDS011;51256;55.654;37.264;2022-09-06T11:28:55;3.10;;;1.60;;
64820;SDS011;51256;55.654;37.264;2022-09-06T11:31:28;2.70;;;1.30;;
64820;SDS011;51256;55.654;37.264;2022-09-06T11:34:06;2.72;;;1.48;;
64820;SDS011;51256;55.654;37.264;2022-09-06T11:39:03;3.50;;;1.40;;
64820;SDS011;51256;55.654;37.264;2022-09-06T11:41:36;2.45;;;1.40;;
64820;SDS011;51256;55.654;37.264;2022-09-06T11:44:04;12.57;;;1.90;;
64820;SDS011;51256;55.654;37.264;2022-09-06T11:49:03;5.45;;;2.05;;
64820;SDS011;51256;55.654;37.264;2022-09-06T11:51:37;2.60;;;1.50;;
64820;SDS011;51256;55.654;37.264;2022-09-06T11:56:39;3.30;;;1.70;;
64820;SDS011;51256;55.654;37.264;2022-09-06T12:04:20;4.95;;;1.58;;
64820;SDS011;51256;55.654;37.264;2022-09-06T12:07:06;3.58;;;1.63;;
64820;SDS011;51256;55.654;37.264;2022-09-06T12:09:36;6.93;;;2.85;;
64820;SDS011;51256;55.654;37.264;2022-09-06T12:12:04;3.03;;;1.65;;
64820;SDS011;51256;55.654;37.264;2022-09-06T12:14:31;7.18;;;2.15;;
64820;SDS011;51256;55.654;37.264;2022-09-06T12:30:30;5.57;;;1.92;;
64820;SDS011;51256;55.654;37.264;2022-09-06T12:35:50;7.43;;;1.85;;
64820;SDS011;51256;55.654;37.264;2022-09-06T12:38:20;2.95;;;1.08;;
64820;SDS011;51256;55.654;37.264;2022-09-06T12:40:49;5.68;;;1.90;;
64820;SDS011;51256;55.654;37.264;2022-09-06T12:43:20;7.88;;;2.30;;
64820;SDS011;51256;55.654;37.264;2022-09-06T12:45:46;4.05;;;1.83;;
64820;SDS011;51256;55.654;37.264;2022-09-06T12:49:16;4.50;;;2.15;;
64820;SDS011;51256;55.654;37.264;2022-09-06T12:51:23;4.28;;;1.70;;
64820;SDS011;51256;55.654;37.264;2022-09-06T12:53:50;5.38;;;1.80;;
64820;SDS011;51256;55.654;37.264;2022-09-06T12:56:21;5.28;;;2.10;;
64820;SDS011;51256;55.654;37.264;2022-09-06T12:58:49;3.17;;;1.50;;
64820;SDS011;51256;55.654;37.264;2022-09-06T13:01:18;2.65;;;1.30;;
64820;SDS011;51256;55.654;37.264;2022-09-06T13:04:03;1.60;;;0.88;;
64820;SDS011;51256;55.654;37.264;2022-09-06T13:06:43;3.40;;;1.20;;
64820;SDS011;51256;55.654;37.264;2022-09-06T13:09:12;1.88;;;1.00;;
64820;SDS011;51256;55.654;37.264;2022-09-06T13:11:42;3.38;;;1.50;;
64820;SDS011;51256;55.654;37.264;2022-09-06T13:14:15;4.20;;;1.90;;
64820;SDS011;51256;55.654;37.264;2022-09-06T13:16:47;2.83;;;1.65;;
64820;SDS011;51256;55.654;37.264;2022-09-06T13:19:28;5.22;;;1.92;;
64820;SDS011;51256;55.654;37.264;2022-09-06T13:21:56;4.70;;;2.30;;
64820;SDS011;51256;55.654;37.264;2022-09-06T13:27:21;8.73;;;2.28;;
64820;SDS011;51256;55.654;37.264;2022-09-06T13:30:19;3.58;;;1.80;;
64820;SDS011;51256;55.654;37.264;2022-09-06T13:32:54;3.97;;;1.80;;
64820;SDS011;51256;55.654;37.264;2022-09-06T13:35:24;7.40;;;1.88;;
64820;SDS011;51256;55.654;37.264;2022-09-06T13:38:17;5.00;;;2.00;;
64820;SDS011;51256;55.654;37.264;2022-09-06T13:40:47;3.53;;;1.60;;
64820;SDS011;51256;55.654;37.264;2022-09-06T13:43:20;8.20;;;1.80;;
64820;SDS011;51256;55.654;37.264;2022-09-06T13:45:47;3.80;;;1.60;;
64820;SDS011;51256;55.654;37.264;2022-09-06T13:48:13;2.25;;;1.33;;
64820;SDS011;51256;55.654;37.264;2022-09-06T13:50:39;9.65;;;1.75;;
64820;SDS011;51256;55.654;37.264;2022-09-06T13:53:06;3.58;;;1.30;;
64820;SDS011;51256;55.654;37.264;2022-09-06T13:55:31;2.63;;;1.30;;
64820;SDS011;51256;55.654;37.264;2022-09-06T13:57:57;2.40;;;1.20;;
64820;SDS011;51256;55.654;37.264;2022-09-06T14:00:23;6.00;;;2.20;;
64820;SDS011;51256;55.654;37.264;2022-09-06T14:02:48;4.63;;;1.50;;
64820;SDS011;51256;55.654;37.264;2022-09-06T14:05:15;2.78;;;1.38;;
64820;SDS011;51256;55.654;37.264;2022-09-06T14:07:42;2.58;;;1.48;;
64820;SDS011;51256;55.654;37.264;2022-09-06T14:10:09;5.00;;;1.40;;
64820;SDS011;51256;55.654;37.264;2022-09-06T14:12:35;2.58;;;1.30;;
64820;SDS011;51256;55.654;37.264;2022-09-06T14:15:02;4.30;;;1.40;;
64820;SDS011;51256;55.654;37.264;2022-09-06T14:17:28;6.00;;;1.75;;
64820;SDS011;51256;55.654;37.264;2022-09-06T14:19:54;8.65;;;3.85;;
64820;SDS011;51256;55.654;37.264;2022-09-06T14:22:20;2.88;;;1.33;;
64820;SDS011;51256;55.654;37.264;2022-09-06T14:24:45;3.58;;;1.80;;
64820;SDS011;51256;55.654;37.264;2022-09-06T14:27:12;2.83;;;1.45;;
64820;SDS011;51256;55.654;37.264;2022-09-06T14:29:38;4.68;;;1.77;;
64820;SDS011;51256;55.654;37.264;2022-09-06T14:32:04;3.55;;;1.60;;
64820;SDS011;51256;55.654;37.264;2022-09-06T14:34:29;2.60;;;1.50;;
64820;SDS011;51256;55.654;37.264;2022-09-06T14:36:55;2.67;;;1.52;;
64820;SDS011;51256;55.654;37.264;2022-09-06T14:39:20;2.78;;;1.63;;
64820;SDS011;51256;55.654;37.264;2022-09-06T14:41:46;4.13;;;1.40;;
64820;SDS011;51256;55.654;37.264;2022-09-06T14:44:12;2.03;;;1.08;;
64820;SDS011;51256;55.654;37.264;2022-09-06T14:46:37;2.17;;;1.30;;
64820;SDS011;51256;55.654;37.264;2022-09-06T14:49:04;3.10;;;1.63;;
64820;SDS011;51256;55.654;37.264;2022-09-06T14:51:34;3.70;;;1.50;;
64820;SDS011;51256;55.654;37.264;2022-09-06T14:54:04;4.07;;;1.80;;
64820;SDS011;51256;55.654;37.264;2022-09-06T14:56:32;5.80;;;1.70;;
64820;SDS011;51256;55.654;37.264;2022-09-06T14:58:59;4.97;;;1.70;;
64820;SDS011;51256;55.654;37.264;2022-09-06T15:01:26;3.03;;;1.40;;
64820;SDS011;51256;55.654;37.264;2022-09-06T15:03:57;3.67;;;1.70;;
64820;SDS011;51256;55.654;37.264;2022-09-06T15:06:26;4.60;;;1.67;;
64820;SDS011;51256;55.654;37.264;2022-09-06T15:08:53;2.85;;;1.60;;
64820;SDS011;51256;55.654;37.264;2022-09-06T15:11:40;6.82;;;1.73;;
64820;SDS011;51256;55.654;37.264;2022-09-06T15:14:11;1.98;;;1.00;;
64820;SDS011;51256;55.654;37.264;2022-09-06T15:16:44;2.72;;;1.30;;
64820;SDS011;51256;55.654;37.264;2022-09-06T15:19:11;4.95;;;2.05;;
64820;SDS011;51256;55.654;37.264;2022-09-06T15:21:37;3.78;;;1.83;;
64820;SDS011;51256;55.654;37.264;2022-09-06T15:24:03;5.55;;;1.95;;
64820;SDS011;51256;55.654;37.264;2022-09-06T15:26:30;2.47;;;1.33;;
64820;SDS011;51256;55.654;37.264;2022-09-06T15:28:57;8.43;;;2.42;;
64820;SDS011;51256;55.654;37.264;2022-09-06T15:31:23;2.78;;;1.48;;
64820;SDS011;51256;55.654;37.264;2022-09-06T15:33:49;9.05;;;1.70;;
64820;SDS011;51256;55.654;37.264;2022-09-06T15:36:15;3.83;;;1.70;;
64820;SDS011;51256;55.654;37.264;2022-09-06T15:38:43;4.90;;;2.00;;
64820;SDS011;51256;55.654;37.264;2022-09-06T15:41:15;5.03;;;2.60;;
64820;SDS011;51256;55.654;37.264;2022-09-06T15:43:46;4.68;;;1.85;;
64820;SDS011;51256;55.654;37.264;2022-09-06T15:46:14;10.95;;;3.92;;
64820;SDS011;51256;55.654;37.264;2022-09-06T15:48:42;4.22;;;2.22;;
64820;SDS011;51256;55.654;37.264;2022-09-06T15:51:10;3.65;;;1.67;;
64820;SDS011;51256;55.654;37.264;2022-09-06T15:53:37;3.42;;;1.75;;
64820;SDS011;51256;55.654;37.264;2022-09-06T15:56:04;3.15;;;1.60;;
64820;SDS011;51256;55.654;37.264;2022-09-06T15:58:30;3.67;;;1.63;;
64820;SDS011;51256;55.654;37.264;2022-09-06T16:01:07;3.03;;;1.17;;
64820;SDS011;51256;55.654;37.264;2022-09-06T16:03:39;2.90;;;1.40;;
64820;SDS011;51256;55.654;37.264;2022-09-06T16:06:07;3.10;;;1.25;;
64820;SDS011;51256;55.654;37.264;2022-09-06T16:08:35;5.88;;;1.45;;
64820;SDS011;51256;55.654;37.264;2022-09-06T16:11:05;2.03;;;1.35;;
64820;SDS011;51256;55.654;37.264;2022-09-06T16:13:36;3.28;;;1.55;;
64820;SDS011;51256;55.654;37.264;2022-09-06T16:16:03;5.72;;;1.52;;
64820;SDS011;51256;55.654;37.264;2022-09-06T16:18:31;2.95;;;1.42;;
64820;SDS011;51256;55.654;37.264;2022-09-06T16:21:05;2.88;;;1.60;;